sensor_id;sensor_type;location;lat;lon;timestamp;pressure;altitude;pressure_sealevel;temperature
45850;BMP180;10739;52.198;20.908;2023-08-08T00:00:59;99408.00;;;18.60
45850;BMP180;10739;52.198;20.908;2023-08-08T00:03:25;99412.00;;;18.80
45850;BMP180;10739;52.198;20.908;2023-08-08T00:05:51;99412.00;;;18.40
45850;BMP180;10739;52.198;20.908;2023-08-08T00:08:17;99414.00;;;19.10
45850;BMP180;10739;52.198;20.908;2023-08-08T00:10:43;99418.00;;;19.00
45850;BMP180;10739;52.198;20.908;2023-08-08T00:13:10;99414.00;;;18.90
45850;BMP180;10739;52.198;20.908;2023-08-08T00:15:36;99426.00;;;18.80
45850;BMP180;10739;52.198;20.908;2023-08-08T00:18:03;99438.00;;;18.60
45850;BMP180;10739;52.198;20.908;2023-08-08T00:20:29;99423.00;;;18.60
45850;BMP180;10739;52.198;20.908;2023-08-08T00:22:55;99430.00;;;18.20
45850;BMP180;10739;52.198;20.908;2023-08-08T00:25:21;99440.00;;;18.70
45850;BMP180;10739;52.198;20.908;2023-08-08T00:27:49;99434.00;;;18.80
45850;BMP180;10739;52.198;20.908;2023-08-08T00:30:16;99436.00;;;18.80
45850;BMP180;10739;52.198;20.908;2023-08-08T00:32:42;99432.00;;;18.60
45850;BMP180;10739;52.198;20.908;2023-08-08T00:35:08;99451.00;;;18.40
45850;BMP180;10739;52.198;20.908;2023-08-08T00:37:34;99442.00;;;18.30
45850;BMP180;10739;52.198;20.908;2023-08-08T00:40:01;99446.00;;;18.10
45850;BMP180;10739;52.198;20.908;2023-08-08T00:42:27;99441.00;;;18.60
45850;BMP180;10739;52.198;20.908;2023-08-08T00:44:53;99455.00;;;18.50
45850;BMP180;10739;52.198;20.908;2023-08-08T00:47:19;99455.00;;;18.40
45850;BMP180;10739;52.198;20.908;2023-08-08T00:49:46;99450.00;;;18.70
45850;BMP180;10739;52.198;20.908;2023-08-08T00:52:14;99459.00;;;18.50
45850;BMP180;10739;52.198;20.908;2023-08-08T00:54:41;99460.00;;;18.50
45850;BMP180;10739;52.198;20.908;2023-08-08T00:57:07;99465.00;;;18.40
45850;BMP180;10739;52.198;20.908;2023-08-08T00:59:33;99469.00;;;18.30
45850;BMP180;10739;52.198;20.908;2023-08-08T01:01:59;99470.00;;;18.70
45850;BMP180;10739;52.198;20.908;2023-08-08T01:04:26;99477.00;;;18.90
45850;BMP180;10739;52.198;20.908;2023-08-08T01:09:50;99479.00;;;18.50
45850;BMP180;10739;52.198;20.908;2023-08-08T01:12:19;99475.00;;;18.10
45850;BMP180;10739;52.198;20.908;2023-08-08T01:14:46;99489.00;;;18.00
45850;BMP180;10739;52.198;20.908;2023-08-08T01:17:13;99488.00;;;18.10
45850;BMP180;10739;52.198;20.908;2023-08-08T01:19:40;99485.00;;;18.30
45850;BMP180;10739;52.198;20.908;2023-08-08T01:22:16;99486.00;;;18.60
45850;BMP180;10739;52.198;20.908;2023-08-08T01:24:46;99490.00;;;17.90
45850;BMP180;10739;52.198;20.908;2023-08-08T01:27:12;99494.00;;;18.00
45850;BMP180;10739;52.198;20.908;2023-08-08T01:29:39;99495.00;;;18.00
45850;BMP180;10739;52.198;20.908;2023-08-08T01:32:05;99505.00;;;18.10
45850;BMP180;10739;52.198;20.908;2023-08-08T01:34:33;99501.00;;;18.20
45850;BMP180;10739;52.198;20.908;2023-08-08T01:37:24;99502.00;;;18.00
45850;BMP180;10739;52.198;20.908;2023-08-08T01:39:59;99503.00;;;17.70
45850;BMP180;10739;52.198;20.908;2023-08-08T01:42:29;99513.00;;;17.90
45850;BMP180;10739;52.198;20.908;2023-08-08T01:44:56;99499.00;;;17.70
45850;BMP180;10739;52.198;20.908;2023-08-08T01:47:24;99512.00;;;17.80
45850;BMP180;10739;52.198;20.908;2023-08-08T01:49:51;99513.00;;;18.50
45850;BMP180;10739;52.198;20.908;2023-08-08T01:52:18;99518.00;;;17.60
45850;BMP180;10739;52.198;20.908;2023-08-08T01:54:45;99528.00;;;17.50
45850;BMP180;10739;52.198;20.908;2023-08-08T01:57:11;99520.00;;;17.90
45850;BMP180;10739;52.198;20.908;2023-08-08T01:59:37;99518.00;;;17.70
45850;BMP180;10739;52.198;20.908;2023-08-08T02:02:04;99524.00;;;17.70
45850;BMP180;10739;52.198;20.908;2023-08-08T02:04:30;99530.00;;;17.30
45850;BMP180;10739;52.198;20.908;2023-08-08T02:06:56;99534.00;;;17.80
45850;BMP180;10739;52.198;20.908;2023-08-08T02:09:22;99541.00;;;17.60
45850;BMP180;10739;52.198;20.908;2023-08-08T02:11:48;99536.00;;;17.60
45850;BMP180;10739;52.198;20.908;2023-08-08T02:14:15;99540.00;;;17.50
45850;BMP180;10739;52.198;20.908;2023-08-08T02:16:41;99531.00;;;17.70
45850;BMP180;10739;52.198;20.908;2023-08-08T02:19:08;99535.00;;;17.20
45850;BMP180;10739;52.198;20.908;2023-08-08T02:21:35;99544.00;;;18.00
45850;BMP180;10739;52.198;20.908;2023-08-08T02:24:01;99549.00;;;17.70
45850;BMP180;10739;52.198;20.908;2023-08-08T02:26:27;99551.00;;;17.30
45850;BMP180;10739;52.198;20.908;2023-08-08T02:28:53;99555.00;;;17.40
45850;BMP180;10739;52.198;20.908;2023-08-08T02:31:19;99556.00;;;17.10
45850;BMP180;10739;52.198;20.908;2023-08-08T02:33:50;99568.00;;;17.60
45850;BMP180;10739;52.198;20.908;2023-08-08T02:36:18;99557.00;;;17.70
45850;BMP180;10739;52.198;20.908;2023-08-08T02:38:44;99567.00;;;17.50
45850;BMP180;10739;52.198;20.908;2023-08-08T02:41:11;99572.00;;;17.20
45850;BMP180;10739;52.198;20.908;2023-08-08T02:43:37;99571.00;;;17.10
45850;BMP180;10739;52.198;20.908;2023-08-08T02:46:03;99569.00;;;17.00
45850;BMP180;10739;52.198;20.908;2023-08-08T02:48:30;99568.00;;;17.40
45850;BMP180;10739;52.198;20.908;2023-08-08T02:50:56;99575.00;;;17.60
45850;BMP180;10739;52.198;20.908;2023-08-08T02:53:22;99572.00;;;17.10
45850;BMP180;10739;52.198;20.908;2023-08-08T02:55:48;99582.00;;;17.20
45850;BMP180;10739;52.198;20.908;2023-08-08T02:58:15;99589.00;;;17.10
45850;BMP180;10739;52.198;20.908;2023-08-08T03:00:41;99592.00;;;17.20
45850;BMP180;10739;52.198;20.908;2023-08-08T03:03:07;99590.00;;;17.30
45850;BMP180;10739;52.198;20.908;2023-08-08T03:05:35;99594.00;;;17.10
45850;BMP180;10739;52.198;20.908;2023-08-08T03:08:01;99594.00;;;17.20
45850;BMP180;10739;52.198;20.908;2023-08-08T03:10:27;99607.00;;;17.10
45850;BMP180;10739;52.198;20.908;2023-08-08T03:12:53;99596.00;;;17.40
45850;BMP180;10739;52.198;20.908;2023-08-08T03:15:19;99604.00;;;16.70
45850;BMP180;10739;52.198;20.908;2023-08-08T03:17:46;99612.00;;;17.20
45850;BMP180;10739;52.198;20.908;2023-08-08T03:20:12;99611.00;;;17.20
45850;BMP180;10739;52.198;20.908;2023-08-08T03:22:38;99612.00;;;17.10
45850;BMP180;10739;52.198;20.908;2023-08-08T03:25:06;99614.00;;;17.10
45850;BMP180;10739;52.198;20.908;2023-08-08T03:27:33;99618.00;;;17.30
45850;BMP180;10739;52.198;20.908;2023-08-08T03:30:02;99623.00;;;17.00
45850;BMP180;10739;52.198;20.908;2023-08-08T03:32:28;99620.00;;;16.90
45850;BMP180;10739;52.198;20.908;2023-08-08T03:34:55;99622.00;;;17.00
45850;BMP180;10739;52.198;20.908;2023-08-08T03:37:21;99622.00;;;17.10
45850;BMP180;10739;52.198;20.908;2023-08-08T03:39:47;99629.00;;;17.10
45850;BMP180;10739;52.198;20.908;2023-08-08T03:42:13;99634.00;;;17.10
45850;BMP180;10739;52.198;20.908;2023-08-08T03:44:39;99638.00;;;17.20
45850;BMP180;10739;52.198;20.908;2023-08-08T03:47:05;99646.00;;;17.20
45850;BMP180;10739;52.198;20.908;2023-08-08T03:49:32;99635.00;;;17.10
45850;BMP180;10739;52.198;20.908;2023-08-08T03:51:58;99647.00;;;17.20
45850;BMP180;10739;52.198;20.908;2023-08-08T03:54:24;99650.00;;;17.10
45850;BMP180;10739;52.198;20.908;2023-08-08T03:56:50;99654.00;;;17.20
45850;BMP180;10739;52.198;20.908;2023-08-08T03:59:16;99661.00;;;17.10
45850;BMP180;10739;52.198;20.908;2023-08-08T04:01:42;99665.00;;;17.10
45850;BMP180;10739;52.198;20.908;2023-08-08T04:04:08;99677.00;;;17.10
45850;BMP180;10739;52.198;20.908;2023-08-08T04:06:34;99663.00;;;17.10
45850;BMP180;10739;52.198;20.908;2023-08-08T04:09:00;99672.00;;;17.20
45850;BMP180;10739;52.198;20.908;2023-08-08T04:11:27;99674.00;;;17.50
45850;BMP180;10739;52.198;20.908;2023-08-08T04:13:53;99678.00;;;17.20
45850;BMP180;10739;52.198;20.908;2023-08-08T04:16:19;99682.00;;;17.20
45850;BMP180;10739;52.198;20.908;2023-08-08T04:18:45;99683.00;;;17.00
45850;BMP180;10739;52.198;20.908;2023-08-08T04:21:11;99683.00;;;17.00
45850;BMP180;10739;52.198;20.908;2023-08-08T04:23:37;99691.00;;;16.90
45850;BMP180;10739;52.198;20.908;2023-08-08T04:26:03;99693.00;;;17.10
45850;BMP180;10739;52.198;20.908;2023-08-08T04:28:29;99695.00;;;17.00
45850;BMP180;10739;52.198;20.908;2023-08-08T04:30:55;99698.00;;;17.10
45850;BMP180;10739;52.198;20.908;2023-08-08T04:33:21;99703.00;;;17.00
45850;BMP180;10739;52.198;20.908;2023-08-08T04:35:47;99695.00;;;17.00
45850;BMP180;10739;52.198;20.908;2023-08-08T04:38:15;99696.00;;;17.60
45850;BMP180;10739;52.198;20.908;2023-08-08T04:40:43;99698.00;;;17.30
45850;BMP180;10739;52.198;20.908;2023-08-08T04:43:09;99706.00;;;17.50
45850;BMP180;10739;52.198;20.908;2023-08-08T04:45:35;99713.00;;;17.30
45850;BMP180;10739;52.198;20.908;2023-08-08T04:48:01;99713.00;;;17.40
45850;BMP180;10739;52.198;20.908;2023-08-08T04:50:27;99711.00;;;17.70
45850;BMP180;10739;52.198;20.908;2023-08-08T04:52:54;99729.00;;;17.80
45850;BMP180;10739;52.198;20.908;2023-08-08T04:55:20;99726.00;;;17.80
45850;BMP180;10739;52.198;20.908;2023-08-08T04:57:46;99721.00;;;17.90
45850;BMP180;10739;52.198;20.908;2023-08-08T05:00:14;99723.00;;;18.20
45850;BMP180;10739;52.198;20.908;2023-08-08T05:02:40;99728.00;;;18.20
45850;BMP180;10739;52.198;20.908;2023-08-08T05:05:07;99730.00;;;18.30
45850;BMP180;10739;52.198;20.908;2023-08-08T05:07:33;99735.00;;;17.90
45850;BMP180;10739;52.198;20.908;2023-08-08T05:10:02;99731.00;;;18.30
45850;BMP180;10739;52.198;20.908;2023-08-08T05:12:28;99732.00;;;18.60
45850;BMP180;10739;52.198;20.908;2023-08-08T05:14:54;99734.00;;;18.20
45850;BMP180;10739;52.198;20.908;2023-08-08T05:17:20;99736.00;;;18.20
45850;BMP180;10739;52.198;20.908;2023-08-08T05:19:47;99743.00;;;18.00
45850;BMP180;10739;52.198;20.908;2023-08-08T05:22:13;99739.00;;;18.90
45850;BMP180;10739;52.198;20.908;2023-08-08T05:24:39;99742.00;;;18.60
45850;BMP180;10739;52.198;20.908;2023-08-08T05:27:05;99738.00;;;18.50
45850;BMP180;10739;52.198;20.908;2023-08-08T05:29:31;99743.00;;;18.60
45850;BMP180;10739;52.198;20.908;2023-08-08T05:31:57;99745.00;;;19.00
45850;BMP180;10739;52.198;20.908;2023-08-08T05:34:24;99747.00;;;18.80
45850;BMP180;10739;52.198;20.908;2023-08-08T05:36:50;99741.00;;;18.60
45850;BMP180;10739;52.198;20.908;2023-08-08T05:39:16;99758.00;;;18.60
45850;BMP180;10739;52.198;20.908;2023-08-08T05:41:42;99754.00;;;17.80
45850;BMP180;10739;52.198;20.908;2023-08-08T05:44:08;99765.00;;;18.20
45850;BMP180;10739;52.198;20.908;2023-08-08T05:46:35;99769.00;;;18.80
45850;BMP180;10739;52.198;20.908;2023-08-08T05:49:01;99772.00;;;18.80
45850;BMP180;10739;52.198;20.908;2023-08-08T05:51:27;99754.00;;;18.40
45850;BMP180;10739;52.198;20.908;2023-08-08T05:53:53;99769.00;;;18.20
45850;BMP180;10739;52.198;20.908;2023-08-08T05:56:19;99765.00;;;18.40
45850;BMP180;10739;52.198;20.908;2023-08-08T05:58:45;99767.00;;;18.70
45850;BMP180;10739;52.198;20.908;2023-08-08T06:01:11;99781.00;;;18.80
45850;BMP180;10739;52.198;20.908;2023-08-08T06:03:38;99774.00;;;18.70
45850;BMP180;10739;52.198;20.908;2023-08-08T06:06:04;99779.00;;;18.70
45850;BMP180;10739;52.198;20.908;2023-08-08T06:08:30;99779.00;;;18.30
45850;BMP180;10739;52.198;20.908;2023-08-08T06:10:58;99783.00;;;18.40
45850;BMP180;10739;52.198;20.908;2023-08-08T06:13:24;99788.00;;;18.90
45850;BMP180;10739;52.198;20.908;2023-08-08T06:15:50;99785.00;;;18.80
45850;BMP180;10739;52.198;20.908;2023-08-08T06:18:17;99790.00;;;19.00
45850;BMP180;10739;52.198;20.908;2023-08-08T06:20:43;99797.00;;;18.20
45850;BMP180;10739;52.198;20.908;2023-08-08T06:23:10;99796.00;;;18.20
45850;BMP180;10739;52.198;20.908;2023-08-08T06:25:36;99801.00;;;18.30
45850;BMP180;10739;52.198;20.908;2023-08-08T06:28:05;99795.00;;;18.60
45850;BMP180;10739;52.198;20.908;2023-08-08T06:30:32;99799.00;;;18.40
45850;BMP180;10739;52.198;20.908;2023-08-08T06:32:58;99804.00;;;18.90
45850;BMP180;10739;52.198;20.908;2023-08-08T06:35:24;99805.00;;;18.80
45850;BMP180;10739;52.198;20.908;2023-08-08T06:37:50;99810.00;;;19.00
45850;BMP180;10739;52.198;20.908;2023-08-08T06:40:16;99817.00;;;19.20
45850;BMP180;10739;52.198;20.908;2023-08-08T06:42:43;99813.00;;;18.40
45850;BMP180;10739;52.198;20.908;2023-08-08T06:45:09;99822.00;;;18.70
45850;BMP180;10739;52.198;20.908;2023-08-08T06:47:35;99818.00;;;18.70
45850;BMP180;10739;52.198;20.908;2023-08-08T06:50:02;99805.00;;;19.00
45850;BMP180;10739;52.198;20.908;2023-08-08T06:52:29;99809.00;;;18.50
45850;BMP180;10739;52.198;20.908;2023-08-08T06:54:55;99811.00;;;18.90
45850;BMP180;10739;52.198;20.908;2023-08-08T06:57:21;99820.00;;;19.50
45850;BMP180;10739;52.198;20.908;2023-08-08T06:59:48;99813.00;;;19.30
45850;BMP180;10739;52.198;20.908;2023-08-08T07:02:18;99819.00;;;19.60
45850;BMP180;10739;52.198;20.908;2023-08-08T07:04:45;99811.00;;;19.70
45850;BMP180;10739;52.198;20.908;2023-08-08T07:07:11;99824.00;;;19.80
45850;BMP180;10739;52.198;20.908;2023-08-08T07:09:37;99817.00;;;20.00
45850;BMP180;10739;52.198;20.908;2023-08-08T07:12:04;99813.00;;;20.20
45850;BMP180;10739;52.198;20.908;2023-08-08T07:14:30;99808.00;;;20.30
45850;BMP180;10739;52.198;20.908;2023-08-08T07:16:56;99805.00;;;20.10
45850;BMP180;10739;52.198;20.908;2023-08-08T07:19:22;99803.00;;;19.30
45850;BMP180;10739;52.198;20.908;2023-08-08T07:21:48;99805.00;;;19.50
45850;BMP180;10739;52.198;20.908;2023-08-08T07:24:14;99805.00;;;19.50
45850;BMP180;10739;52.198;20.908;2023-08-08T07:26:40;99822.00;;;19.70
45850;BMP180;10739;52.198;20.908;2023-08-08T07:29:06;99824.00;;;19.90
45850;BMP180;10739;52.198;20.908;2023-08-08T07:31:33;99807.00;;;20.20
45850;BMP180;10739;52.198;20.908;2023-08-08T07:33:59;99824.00;;;19.90
45850;BMP180;10739;52.198;20.908;2023-08-08T07:36:25;99813.00;;;20.00
45850;BMP180;10739;52.198;20.908;2023-08-08T07:38:51;99818.00;;;19.70
45850;BMP180;10739;52.198;20.908;2023-08-08T07:41:18;99819.00;;;19.80
45850;BMP180;10739;52.198;20.908;2023-08-08T07:43:44;99819.00;;;19.70
45850;BMP180;10739;52.198;20.908;2023-08-08T07:46:10;99828.00;;;19.40
45850;BMP180;10739;52.198;20.908;2023-08-08T07:48:36;99826.00;;;19.90
45850;BMP180;10739;52.198;20.908;2023-08-08T07:51:02;99826.00;;;20.60
45850;BMP180;10739;52.198;20.908;2023-08-08T07:53:29;99830.00;;;21.00
45850;BMP180;10739;52.198;20.908;2023-08-08T07:55:55;99823.00;;;20.70
45850;BMP180;10739;52.198;20.908;2023-08-08T07:58:21;99829.00;;;20.90
45850;BMP180;10739;52.198;20.908;2023-08-08T08:00:51;99817.00;;;20.70
45850;BMP180;10739;52.198;20.908;2023-08-08T08:03:20;99825.00;;;20.90
45850;BMP180;10739;52.198;20.908;2023-08-08T08:05:46;99828.00;;;20.30
45850;BMP180;10739;52.198;20.908;2023-08-08T08:08:12;99829.00;;;20.20
45850;BMP180;10739;52.198;20.908;2023-08-08T08:10:39;99829.00;;;21.00
45850;BMP180;10739;52.198;20.908;2023-08-08T08:13:05;99822.00;;;21.30
45850;BMP180;10739;52.198;20.908;2023-08-08T08:15:32;99817.00;;;21.40
45850;BMP180;10739;52.198;20.908;2023-08-08T08:17:58;99826.00;;;21.60
45850;BMP180;10739;52.198;20.908;2023-08-08T08:20:24;99819.00;;;21.00
45850;BMP180;10739;52.198;20.908;2023-08-08T08:22:50;99826.00;;;20.80
45850;BMP180;10739;52.198;20.908;2023-08-08T08:25:17;99832.00;;;20.70
45850;BMP180;10739;52.198;20.908;2023-08-08T08:27:42;99836.00;;;20.50
45850;BMP180;10739;52.198;20.908;2023-08-08T08:30:09;99833.00;;;20.40
45850;BMP180;10739;52.198;20.908;2023-08-08T08:32:38;99830.00;;;20.10
45850;BMP180;10739;52.198;20.908;2023-08-08T08:35:05;99843.00;;;20.30
45850;BMP180;10739;52.198;20.908;2023-08-08T08:37:32;99829.00;;;20.50
45850;BMP180;10739;52.198;20.908;2023-08-08T08:40:00;99827.00;;;20.80
45850;BMP180;10739;52.198;20.908;2023-08-08T08:42:28;99823.00;;;20.90
45850;BMP180;10739;52.198;20.908;2023-08-08T08:44:58;99843.00;;;20.90
45850;BMP180;10739;52.198;20.908;2023-08-08T08:47:25;99829.00;;;20.80
45850;BMP180;10739;52.198;20.908;2023-08-08T08:49:57;99838.00;;;21.10
45850;BMP180;10739;52.198;20.908;2023-08-08T08:52:24;99824.00;;;21.30
45850;BMP180;10739;52.198;20.908;2023-08-08T08:54:53;99830.00;;;21.60
45850;BMP180;10739;52.198;20.908;2023-08-08T08:57:21;99837.00;;;22.30
45850;BMP180;10739;52.198;20.908;2023-08-08T08:59:50;99834.00;;;21.70
45850;BMP180;10739;52.198;20.908;2023-08-08T09:02:18;99831.00;;;22.10
45850;BMP180;10739;52.198;20.908;2023-08-08T09:04:45;99830.00;;;22.20
45850;BMP180;10739;52.198;20.908;2023-08-08T09:07:13;99834.00;;;22.30
45850;BMP180;10739;52.198;20.908;2023-08-08T09:09:43;99846.00;;;22.50
45850;BMP180;10739;52.198;20.908;2023-08-08T09:12:10;99832.00;;;22.70
45850;BMP180;10739;52.198;20.908;2023-08-08T09:14:41;99846.00;;;21.90
45850;BMP180;10739;52.198;20.908;2023-08-08T09:17:13;99845.00;;;21.80
45850;BMP180;10739;52.198;20.908;2023-08-08T09:19:44;99842.00;;;22.50
45850;BMP180;10739;52.198;20.908;2023-08-08T09:22:19;99839.00;;;22.20
45850;BMP180;10739;52.198;20.908;2023-08-08T09:24:46;99845.00;;;22.00
45850;BMP180;10739;52.198;20.908;2023-08-08T09:27:14;99843.00;;;22.60
45850;BMP180;10739;52.198;20.908;2023-08-08T09:29:44;99839.00;;;23.50
45850;BMP180;10739;52.198;20.908;2023-08-08T09:32:12;99849.00;;;23.40
45850;BMP180;10739;52.198;20.908;2023-08-08T09:34:44;99849.00;;;22.20
45850;BMP180;10739;52.198;20.908;2023-08-08T09:37:11;99852.00;;;21.70
45850;BMP180;10739;52.198;20.908;2023-08-08T09:39:38;99863.00;;;21.70
45850;BMP180;10739;52.198;20.908;2023-08-08T09:42:04;99860.00;;;21.70
45850;BMP180;10739;52.198;20.908;2023-08-08T09:44:31;99859.00;;;21.50
45850;BMP180;10739;52.198;20.908;2023-08-08T09:47:01;99861.00;;;21.80
45850;BMP180;10739;52.198;20.908;2023-08-08T09:49:28;99866.00;;;21.80
45850;BMP180;10739;52.198;20.908;2023-08-08T09:51:55;99862.00;;;21.30
45850;BMP180;10739;52.198;20.908;2023-08-08T09:54:23;99858.00;;;21.80
45850;BMP180;10739;52.198;20.908;2023-08-08T09:56:51;99860.00;;;21.60
45850;BMP180;10739;52.198;20.908;2023-08-08T09:59:18;99868.00;;;21.60
45850;BMP180;10739;52.198;20.908;2023-08-08T10:01:46;99866.00;;;21.80
45850;BMP180;10739;52.198;20.908;2023-08-08T10:04:12;99854.00;;;21.90
45850;BMP180;10739;52.198;20.908;2023-08-08T10:06:39;99849.00;;;22.20
45850;BMP180;10739;52.198;20.908;2023-08-08T10:09:05;99854.00;;;22.20
45850;BMP180;10739;52.198;20.908;2023-08-08T10:11:33;99852.00;;;22.90
45850;BMP180;10739;52.198;20.908;2023-08-08T10:14:02;99848.00;;;22.70
45850;BMP180;10739;52.198;20.908;2023-08-08T10:16:32;99848.00;;;22.10
45850;BMP180;10739;52.198;20.908;2023-08-08T10:19:02;99864.00;;;21.90
45850;BMP180;10739;52.198;20.908;2023-08-08T10:21:37;99867.00;;;21.60
45850;BMP180;10739;52.198;20.908;2023-08-08T10:24:09;99864.00;;;22.00
45850;BMP180;10739;52.198;20.908;2023-08-08T10:26:57;99858.00;;;23.90
45850;BMP180;10739;52.198;20.908;2023-08-08T10:29:26;99848.00;;;24.50
45850;BMP180;10739;52.198;20.908;2023-08-08T10:32:00;99859.00;;;24.00
45850;BMP180;10739;52.198;20.908;2023-08-08T10:34:40;99849.00;;;23.50
45850;BMP180;10739;52.198;20.908;2023-08-08T10:37:12;99850.00;;;23.60
45850;BMP180;10739;52.198;20.908;2023-08-08T10:42:22;99861.00;;;24.20
45850;BMP180;10739;52.198;20.908;2023-08-08T10:44:56;99864.00;;;23.00
45850;BMP180;10739;52.198;20.908;2023-08-08T10:47:34;99875.00;;;22.80
45850;BMP180;10739;52.198;20.908;2023-08-08T10:50:16;99875.00;;;21.80
45850;BMP180;10739;52.198;20.908;2023-08-08T10:52:53;99865.00;;;22.60
45850;BMP180;10739;52.198;20.908;2023-08-08T10:55:25;99857.00;;;24.30
45850;BMP180;10739;52.198;20.908;2023-08-08T11:00:36;99862.00;;;26.10
45850;BMP180;10739;52.198;20.908;2023-08-08T11:03:03;99864.00;;;26.60
45850;BMP180;10739;52.198;20.908;2023-08-08T11:05:35;99867.00;;;25.20
45850;BMP180;10739;52.198;20.908;2023-08-08T11:08:03;99872.00;;;24.10
45850;BMP180;10739;52.198;20.908;2023-08-08T11:10:36;99868.00;;;23.80
45850;BMP180;10739;52.198;20.908;2023-08-08T11:13:05;99866.00;;;23.00
45850;BMP180;10739;52.198;20.908;2023-08-08T11:15:33;99873.00;;;23.00
45850;BMP180;10739;52.198;20.908;2023-08-08T11:18:01;99874.00;;;24.10
45850;BMP180;10739;52.198;20.908;2023-08-08T11:20:33;99861.00;;;25.70
45850;BMP180;10739;52.198;20.908;2023-08-08T11:23:00;99860.00;;;25.30
45850;BMP180;10739;52.198;20.908;2023-08-08T11:25:30;99879.00;;;24.40
45850;BMP180;10739;52.198;20.908;2023-08-08T11:27:57;99875.00;;;23.70
45850;BMP180;10739;52.198;20.908;2023-08-08T11:30:28;99873.00;;;23.90
45850;BMP180;10739;52.198;20.908;2023-08-08T11:32:54;99883.00;;;24.30
45850;BMP180;10739;52.198;20.908;2023-08-08T11:35:25;99880.00;;;24.50
45850;BMP180;10739;52.198;20.908;2023-08-08T11:37:55;99880.00;;;25.10
45850;BMP180;10739;52.198;20.908;2023-08-08T11:40:23;99879.00;;;24.50
45850;BMP180;10739;52.198;20.908;2023-08-08T11:42:52;99886.00;;;23.70
45850;BMP180;10739;52.198;20.908;2023-08-08T11:45:19;99885.00;;;24.20
45850;BMP180;10739;52.198;20.908;2023-08-08T11:47:50;99890.00;;;25.90
45850;BMP180;10739;52.198;20.908;2023-08-08T11:50:22;99879.00;;;27.30
45850;BMP180;10739;52.198;20.908;2023-08-08T11:52:52;99876.00;;;28.20
45850;BMP180;10739;52.198;20.908;2023-08-08T11:55:19;99880.00;;;28.20
45850;BMP180;10739;52.198;20.908;2023-08-08T11:57:50;99889.00;;;28.80
45850;BMP180;10739;52.198;20.908;2023-08-08T12:00:17;99880.00;;;29.00
45850;BMP180;10739;52.198;20.908;2023-08-08T12:02:44;99885.00;;;28.40
45850;BMP180;10739;52.198;20.908;2023-08-08T12:05:14;99886.00;;;26.70
45850;BMP180;10739;52.198;20.908;2023-08-08T12:07:48;99892.00;;;25.10
45850;BMP180;10739;52.198;20.908;2023-08-08T12:10:18;99893.00;;;24.60
45850;BMP180;10739;52.198;20.908;2023-08-08T12:12:55;99884.00;;;25.60
45850;BMP180;10739;52.198;20.908;2023-08-08T12:15:23;99882.00;;;25.70
45850;BMP180;10739;52.198;20.908;2023-08-08T12:17:49;99896.00;;;25.20
45850;BMP180;10739;52.198;20.908;2023-08-08T12:20:16;99889.00;;;24.30
45850;BMP180;10739;52.198;20.908;2023-08-08T12:22:42;99902.00;;;24.70
45850;BMP180;10739;52.198;20.908;2023-08-08T12:25:09;99910.00;;;23.70
45850;BMP180;10739;52.198;20.908;2023-08-08T12:27:36;99907.00;;;23.10
45850;BMP180;10739;52.198;20.908;2023-08-08T12:30:06;99908.00;;;23.40
45850;BMP180;10739;52.198;20.908;2023-08-08T12:32:33;99899.00;;;24.70
45850;BMP180;10739;52.198;20.908;2023-08-08T12:34:59;99891.00;;;26.40
45850;BMP180;10739;52.198;20.908;2023-08-08T12:37:25;99891.00;;;27.00
45850;BMP180;10739;52.198;20.908;2023-08-08T12:39:51;99897.00;;;26.20
45850;BMP180;10739;52.198;20.908;2023-08-08T12:42:18;99890.00;;;24.90
45850;BMP180;10739;52.198;20.908;2023-08-08T12:44:44;99896.00;;;25.50
45850;BMP180;10739;52.198;20.908;2023-08-08T12:47:12;99900.00;;;25.80
45850;BMP180;10739;52.198;20.908;2023-08-08T12:49:39;99897.00;;;27.30
45850;BMP180;10739;52.198;20.908;2023-08-08T12:52:05;99888.00;;;27.20
45850;BMP180;10739;52.198;20.908;2023-08-08T12:54:31;99887.00;;;27.00
45850;BMP180;10739;52.198;20.908;2023-08-08T12:56:57;99904.00;;;26.80
45850;BMP180;10739;52.198;20.908;2023-08-08T12:59:24;99901.00;;;27.80
45850;BMP180;10739;52.198;20.908;2023-08-08T13:01:50;99901.00;;;26.50
45850;BMP180;10739;52.198;20.908;2023-08-08T13:04:16;99902.00;;;26.40
45850;BMP180;10739;52.198;20.908;2023-08-08T13:06:42;99908.00;;;25.50
45850;BMP180;10739;52.198;20.908;2023-08-08T13:09:08;99906.00;;;25.60
45850;BMP180;10739;52.198;20.908;2023-08-08T13:11:34;99911.00;;;24.60
45850;BMP180;10739;52.198;20.908;2023-08-08T13:14:01;99906.00;;;24.20
45850;BMP180;10739;52.198;20.908;2023-08-08T13:16:27;99911.00;;;24.30
45850;BMP180;10739;52.198;20.908;2023-08-08T13:18:53;99920.00;;;24.00
45850;BMP180;10739;52.198;20.908;2023-08-08T13:21:19;99923.00;;;23.80
45850;BMP180;10739;52.198;20.908;2023-08-08T13:23:45;99930.00;;;23.50
45850;BMP180;10739;52.198;20.908;2023-08-08T13:26:11;99937.00;;;23.50
45850;BMP180;10739;52.198;20.908;2023-08-08T13:28:38;99935.00;;;23.10
45850;BMP180;10739;52.198;20.908;2023-08-08T13:31:05;99937.00;;;22.40
45850;BMP180;10739;52.198;20.908;2023-08-08T13:33:34;99951.00;;;22.80
45850;BMP180;10739;52.198;20.908;2023-08-08T13:36:01;99951.00;;;21.80
45850;BMP180;10739;52.198;20.908;2023-08-08T13:38:27;99962.00;;;21.50
45850;BMP180;10739;52.198;20.908;2023-08-08T13:40:54;99964.00;;;21.90
45850;BMP180;10739;52.198;20.908;2023-08-08T13:43:21;99975.00;;;21.80
45850;BMP180;10739;52.198;20.908;2023-08-08T13:45:47;99972.00;;;21.90
45850;BMP180;10739;52.198;20.908;2023-08-08T13:48:13;99983.00;;;21.60
45850;BMP180;10739;52.198;20.908;2023-08-08T13:50:39;99976.00;;;22.10
45850;BMP180;10739;52.198;20.908;2023-08-08T13:53:05;99976.00;;;21.80
45850;BMP180;10739;52.198;20.908;2023-08-08T13:55:31;99971.00;;;22.10
45850;BMP180;10739;52.198;20.908;2023-08-08T13:58:08;99963.00;;;22.50
45850;BMP180;10739;52.198;20.908;2023-08-08T14:00:34;99964.00;;;22.80
45850;BMP180;10739;52.198;20.908;2023-08-08T14:03:02;99954.00;;;23.10
45850;BMP180;10739;52.198;20.908;2023-08-08T14:05:28;99951.00;;;23.90